<?xml version="1.0" encoding="UTF-8" standalone="no" ?>
<gpx xmlns="http://www.topografix.com/GPX/1/1" xmlns:xsi="http://www.w3.org/2001/XMLSchema-instance" xsi:schemaLocation="http://www.topografix.com/GPX/1/1 http://www.topografix.com/GPX/1/1/gpx.xsd" version="1.1" creator="VisuGPX - https://www.visugpx.com">
  <metadata>
    <name>Vacances 2021</name>
  </metadata>
  <trk>
    <name><![CDATA[Journal actif: 2021-07-20 11:32]]></name>
    <trkseg>
      <trkpt lat="48.9693" lon="7.92546">
        <ele>189.04</ele>
        <time>2021-07-20T13:32:45Z</time>
      </trkpt>
      <trkpt lat="48.96927" lon="7.92548">
        <ele>189.04</ele>
        <time>2021-07-20T13:33:01Z</time>
      </trkpt>
      <trkpt lat="48.96917" lon="7.92559">
        <ele>189.04</ele>
        <time>2021-07-20T13:33:07Z</time>
      </trkpt>
      <trkpt lat="48.96889" lon="7.92608">
        <ele>189.52</ele>
        <time>2021-07-20T13:33:20Z</time>
      </trkpt>
      <trkpt lat="48.96828" lon="7.92681">
        <ele>191.92</ele>
        <time>2021-07-20T13:33:30Z</time>
      </trkpt>
      <trkpt lat="48.96736" lon="7.92772">
        <ele>189.52</ele>
        <time>2021-07-20T13:33:41Z</time>
      </trkpt>
      <trkpt lat="48.96669" lon="7.92873">
        <ele>187.11</ele>
        <time>2021-07-20T13:33:52Z</time>
      </trkpt>
      <trkpt lat="48.96651" lon="7.92892">
        <ele>187.59</ele>
        <time>2021-07-20T13:33:57Z</time>
      </trkpt>
      <trkpt lat="48.96651" lon="7.92892">
        <ele>188.08</ele>
        <time>2021-07-20T13:33:58Z</time>
      </trkpt>
      <trkpt lat="48.96649" lon="7.92891">
        <ele>188.08</ele>
        <time>2021-07-20T13:33:59Z</time>
      </trkpt>
      <trkpt lat="48.9664" lon="7.92898">
        <ele>188.08</ele>
        <time>2021-07-20T13:34:00Z</time>
      </trkpt>
      <trkpt lat="48.96635" lon="7.92894">
        <ele>188.08</ele>
        <time>2021-07-20T13:34:01Z</time>
      </trkpt>
      <trkpt lat="48.96628" lon="7.9289">
        <ele>188.08</ele>
        <time>2021-07-20T13:34:02Z</time>
      </trkpt>
      <trkpt lat="48.96535" lon="7.92827">
        <ele>185.67</ele>
        <time>2021-07-20T13:34:12Z</time>
      </trkpt>
      <trkpt lat="48.96347" lon="7.92694">
        <ele>176.06</ele>
        <time>2021-07-20T13:34:27Z</time>
      </trkpt>
      <trkpt lat="48.96233" lon="7.92567">
        <ele>177.5</ele>
        <time>2021-07-20T13:34:36Z</time>
      </trkpt>
      <trkpt lat="48.96109" lon="7.92399">
        <ele>183.75</ele>
        <time>2021-07-20T13:34:47Z</time>
      </trkpt>
      <trkpt lat="48.96025" lon="7.92343">
        <ele>190.48</ele>
        <time>2021-07-20T13:34:55Z</time>
      </trkpt>
      <trkpt lat="48.95903" lon="7.92268">
        <ele>195.77</ele>
        <time>2021-07-20T13:35:09Z</time>
      </trkpt>
      <trkpt lat="48.95868" lon="7.92228">
        <ele>196.25</ele>
        <time>2021-07-20T13:35:16Z</time>
      </trkpt>
      <trkpt lat="48.95868" lon="7.92228">
        <ele>195.77</ele>
        <time>2021-07-20T13:35:17Z</time>
      </trkpt>
      <trkpt lat="48.95864" lon="7.92223">
        <ele>195.77</ele>
        <time>2021-07-20T13:35:18Z</time>
      </trkpt>
      <trkpt lat="48.95804" lon="7.92178">
        <ele>192.88</ele>
        <time>2021-07-20T13:35:26Z</time>
      </trkpt>
      <trkpt lat="48.95698" lon="7.9204">
        <ele>188.08</ele>
        <time>2021-07-20T13:35:39Z</time>
      </trkpt>
      <trkpt lat="48.95583" lon="7.91879">
        <ele>177.98</ele>
        <time>2021-07-20T13:35:53Z</time>
      </trkpt>
      <trkpt lat="48.95578" lon="7.91871">
        <ele>177.02</ele>
        <time>2021-07-20T13:35:54Z</time>
      </trkpt>
      <trkpt lat="48.95566" lon="7.91855">
        <ele>176.54</ele>
        <time>2021-07-20T13:35:55Z</time>
      </trkpt>
      <trkpt lat="48.9556" lon="7.91847">
        <ele>176.06</ele>
        <time>2021-07-20T13:35:56Z</time>
      </trkpt>
      <trkpt lat="48.95554" lon="7.91838">
        <ele>175.1</ele>
        <time>2021-07-20T13:35:57Z</time>
      </trkpt>
      <trkpt lat="48.95554" lon="7.91838">
        <ele>174.14</ele>
        <time>2021-07-20T13:35:58Z</time>
      </trkpt>
      <trkpt lat="48.95547" lon="7.91829">
        <ele>173.66</ele>
        <time>2021-07-20T13:35:59Z</time>
      </trkpt>
      <trkpt lat="48.95522" lon="7.91801">
        <ele>170.29</ele>
        <time>2021-07-20T13:36:02Z</time>
      </trkpt>
      <trkpt lat="48.95505" lon="7.91785">
        <ele>169.81</ele>
        <time>2021-07-20T13:36:03Z</time>
      </trkpt>
      <trkpt lat="48.95494" lon="7.9178">
        <ele>168.37</ele>
        <time>2021-07-20T13:36:04Z</time>
      </trkpt>
      <trkpt lat="48.95483" lon="7.91776">
        <ele>166.93</ele>
        <time>2021-07-20T13:36:05Z</time>
      </trkpt>
      <trkpt lat="48.95483" lon="7.91776">
        <ele>165.96</ele>
        <time>2021-07-20T13:36:06Z</time>
      </trkpt>
      <trkpt lat="48.954" lon="7.91729">
        <ele>160.2</ele>
        <time>2021-07-20T13:36:15Z</time>
      </trkpt>
      <trkpt lat="48.95327" lon="7.91622">
        <ele>161.16</ele>
        <time>2021-07-20T13:36:24Z</time>
      </trkpt>
      <trkpt lat="48.95224" lon="7.91472">
        <ele>173.66</ele>
        <time>2021-07-20T13:36:35Z</time>
      </trkpt>
      <trkpt lat="48.95192" lon="7.91419">
        <ele>177.02</ele>
        <time>2021-07-20T13:36:42Z</time>
      </trkpt>
      <trkpt lat="48.95188" lon="7.91413">
        <ele>177.98</ele>
        <time>2021-07-20T13:36:43Z</time>
      </trkpt>
      <trkpt lat="48.95186" lon="7.91404">
        <ele>178.94</ele>
        <time>2021-07-20T13:36:44Z</time>
      </trkpt>
      <trkpt lat="48.95184" lon="7.91395">
        <ele>179.9</ele>
        <time>2021-07-20T13:36:45Z</time>
      </trkpt>
      <trkpt lat="48.95183" lon="7.91385">
        <ele>180.38</ele>
        <time>2021-07-20T13:36:46Z</time>
      </trkpt>
      <trkpt lat="48.95186" lon="7.91377">
        <ele>180.87</ele>
        <time>2021-07-20T13:36:47Z</time>
      </trkpt>
      <trkpt lat="48.9519" lon="7.9137">
        <ele>181.35</ele>
        <time>2021-07-20T13:36:48Z</time>
      </trkpt>
      <trkpt lat="48.9523" lon="7.91266">
        <ele>184.71</ele>
        <time>2021-07-20T13:36:58Z</time>
      </trkpt>
      <trkpt lat="48.95262" lon="7.91073">
        <ele>187.11</ele>
        <time>2021-07-20T13:37:10Z</time>
      </trkpt>
      <trkpt lat="48.95318" lon="7.90874">
        <ele>187.59</ele>
        <time>2021-07-20T13:37:22Z</time>
      </trkpt>
      <trkpt lat="48.95396" lon="7.90702">
        <ele>185.67</ele>
        <time>2021-07-20T13:37:34Z</time>
      </trkpt>
      <trkpt lat="48.95419" lon="7.90647">
        <ele>181.83</ele>
        <time>2021-07-20T13:37:40Z</time>
      </trkpt>
      <trkpt lat="48.95422" lon="7.90634">
        <ele>180.87</ele>
        <time>2021-07-20T13:37:41Z</time>
      </trkpt>
      <trkpt lat="48.95424" lon="7.90623">
        <ele>179.42</ele>
        <time>2021-07-20T13:37:42Z</time>
      </trkpt>
      <trkpt lat="48.95426" lon="7.90588">
        <ele>177.5</ele>
        <time>2021-07-20T13:37:45Z</time>
      </trkpt>
      <trkpt lat="48.95426" lon="7.90578">
        <ele>177.5</ele>
        <time>2021-07-20T13:37:46Z</time>
      </trkpt>
      <trkpt lat="48.9543" lon="7.90564">
        <ele>177.5</ele>
        <time>2021-07-20T13:37:47Z</time>
      </trkpt>
      <trkpt lat="48.95481" lon="7.90433">
        <ele>176.06</ele>
        <time>2021-07-20T13:37:58Z</time>
      </trkpt>
      <trkpt lat="48.95548" lon="7.90293">
        <ele>176.06</ele>
        <time>2021-07-20T13:38:09Z</time>
      </trkpt>
      <trkpt lat="48.95631" lon="7.90167">
        <ele>172.69</ele>
        <time>2021-07-20T13:38:21Z</time>
      </trkpt>
      <trkpt lat="48.95638" lon="7.90155">
        <ele>172.69</ele>
        <time>2021-07-20T13:38:22Z</time>
      </trkpt>
      <trkpt lat="48.9565" lon="7.90129">
        <ele>172.69</ele>
        <time>2021-07-20T13:38:23Z</time>
      </trkpt>
      <trkpt lat="48.9565" lon="7.90129">
        <ele>173.17</ele>
        <time>2021-07-20T13:38:24Z</time>
      </trkpt>
      <trkpt lat="48.95657" lon="7.90114">
        <ele>173.17</ele>
        <time>2021-07-20T13:38:25Z</time>
      </trkpt>
      <trkpt lat="48.9566" lon="7.90099">
        <ele>172.69</ele>
        <time>2021-07-20T13:38:26Z</time>
      </trkpt>
      <trkpt lat="48.95663" lon="7.9008">
        <ele>172.21</ele>
        <time>2021-07-20T13:38:27Z</time>
      </trkpt>
      <trkpt lat="48.95685" lon="7.8994">
        <ele>170.29</ele>
        <time>2021-07-20T13:38:34Z</time>
      </trkpt>
      <trkpt lat="48.95691" lon="7.89918">
        <ele>169.33</ele>
        <time>2021-07-20T13:38:35Z</time>
      </trkpt>
      <trkpt lat="48.95698" lon="7.89905">
        <ele>168.85</ele>
        <time>2021-07-20T13:38:36Z</time>
      </trkpt>
      <trkpt lat="48.95705" lon="7.89889">
        <ele>168.85</ele>
        <time>2021-07-20T13:38:37Z</time>
      </trkpt>
      <trkpt lat="48.95714" lon="7.89876">
        <ele>168.37</ele>
        <time>2021-07-20T13:38:38Z</time>
      </trkpt>
      <trkpt lat="48.95725" lon="7.89863">
        <ele>167.89</ele>
        <time>2021-07-20T13:38:39Z</time>
      </trkpt>
      <trkpt lat="48.95813" lon="7.89727">
        <ele>164.52</ele>
        <time>2021-07-20T13:38:48Z</time>
      </trkpt>
      <trkpt lat="48.95878" lon="7.8963">
        <ele>165.48</ele>
        <time>2021-07-20T13:38:54Z</time>
      </trkpt>
      <trkpt lat="48.95886" lon="7.89611">
        <ele>165.48</ele>
        <time>2021-07-20T13:38:55Z</time>
      </trkpt>
      <trkpt lat="48.95895" lon="7.89593">
        <ele>165.48</ele>
        <time>2021-07-20T13:38:56Z</time>
      </trkpt>
      <trkpt lat="48.95901" lon="7.89573">
        <ele>166.45</ele>
        <time>2021-07-20T13:38:57Z</time>
      </trkpt>
      <trkpt lat="48.95907" lon="7.89551">
        <ele>166.45</ele>
        <time>2021-07-20T13:38:58Z</time>
      </trkpt>
      <trkpt lat="48.95913" lon="7.89529">
        <ele>166.45</ele>
        <time>2021-07-20T13:38:59Z</time>
      </trkpt>
      <trkpt lat="48.9594" lon="7.89395">
        <ele>164.52</ele>
        <time>2021-07-20T13:39:05Z</time>
      </trkpt>
      <trkpt lat="48.95941" lon="7.89371">
        <ele>165</ele>
        <time>2021-07-20T13:39:06Z</time>
      </trkpt>
      <trkpt lat="48.95946" lon="7.89286">
        <ele>163.56</ele>
        <time>2021-07-20T13:39:10Z</time>
      </trkpt>
      <trkpt lat="48.9595" lon="7.89268">
        <ele>165.48</ele>
        <time>2021-07-20T13:39:11Z</time>
      </trkpt>
      <trkpt lat="48.95955" lon="7.8925">
        <ele>166.45</ele>
        <time>2021-07-20T13:39:12Z</time>
      </trkpt>
      <trkpt lat="48.95962" lon="7.89237">
        <ele>167.41</ele>
        <time>2021-07-20T13:39:13Z</time>
      </trkpt>
      <trkpt lat="48.9597" lon="7.89223">
        <ele>168.37</ele>
        <time>2021-07-20T13:39:14Z</time>
      </trkpt>
      <trkpt lat="48.95982" lon="7.89212">
        <ele>168.85</ele>
        <time>2021-07-20T13:39:15Z</time>
      </trkpt>
      <trkpt lat="48.95991" lon="7.89203">
        <ele>168.37</ele>
        <time>2021-07-20T13:39:16Z</time>
      </trkpt>
      <trkpt lat="48.96005" lon="7.89199">
        <ele>167.89</ele>
        <time>2021-07-20T13:39:17Z</time>
      </trkpt>
      <trkpt lat="48.96018" lon="7.89196">
        <ele>167.41</ele>
        <time>2021-07-20T13:39:18Z</time>
      </trkpt>
      <trkpt lat="48.96188" lon="7.89155">
        <ele>172.69</ele>
        <time>2021-07-20T13:39:30Z</time>
      </trkpt>
      <trkpt lat="48.96228" lon="7.89133">
        <ele>176.54</ele>
        <time>2021-07-20T13:39:33Z</time>
      </trkpt>
      <trkpt lat="48.96241" lon="7.89122">
        <ele>177.5</ele>
        <time>2021-07-20T13:39:34Z</time>
      </trkpt>
      <trkpt lat="48.96255" lon="7.89112">
        <ele>177.98</ele>
        <time>2021-07-20T13:39:35Z</time>
      </trkpt>
      <trkpt lat="48.96266" lon="7.89097">
        <ele>178.94</ele>
        <time>2021-07-20T13:39:36Z</time>
      </trkpt>
      <trkpt lat="48.96278" lon="7.89081">
        <ele>180.38</ele>
        <time>2021-07-20T13:39:37Z</time>
      </trkpt>
      <trkpt lat="48.96289" lon="7.89065">
        <ele>181.35</ele>
        <time>2021-07-20T13:39:38Z</time>
      </trkpt>
      <trkpt lat="48.96301" lon="7.89048">
        <ele>181.83</ele>
        <time>2021-07-20T13:39:39Z</time>
      </trkpt>
      <trkpt lat="48.96311" lon="7.8903">
        <ele>182.31</ele>
        <time>2021-07-20T13:39:40Z</time>
      </trkpt>
      <trkpt lat="48.96412" lon="7.88882">
        <ele>188.08</ele>
        <time>2021-07-20T13:39:49Z</time>
      </trkpt>
      <trkpt lat="48.96569" lon="7.88638">
        <ele>204.9</ele>
        <time>2021-07-20T13:40:04Z</time>
      </trkpt>
      <trkpt lat="48.96703" lon="7.88452">
        <ele>203.94</ele>
        <time>2021-07-20T13:40:16Z</time>
      </trkpt>
      <trkpt lat="48.96913" lon="7.88187">
        <ele>209.7</ele>
        <time>2021-07-20T13:40:32Z</time>
      </trkpt>
      <trkpt lat="48.96989" lon="7.88024">
        <ele>213.55</ele>
        <time>2021-07-20T13:40:40Z</time>
      </trkpt>
      <trkpt lat="48.97078" lon="7.87719">
        <ele>215.47</ele>
        <time>2021-07-20T13:40:53Z</time>
      </trkpt>
      <trkpt lat="48.97121" lon="7.87488">
        <ele>217.4</ele>
        <time>2021-07-20T13:41:03Z</time>
      </trkpt>
      <trkpt lat="48.97184" lon="7.87262">
        <ele>226.53</ele>
        <time>2021-07-20T13:41:14Z</time>
      </trkpt>
      <trkpt lat="48.97203" lon="7.87198">
        <ele>229.89</ele>
        <time>2021-07-20T13:41:17Z</time>
      </trkpt>
      <trkpt lat="48.97211" lon="7.87179">
        <ele>230.85</ele>
        <time>2021-07-20T13:41:18Z</time>
      </trkpt>
      <trkpt lat="48.97296" lon="7.87026">
        <ele>248.16</ele>
        <time>2021-07-20T13:41:27Z</time>
      </trkpt>
      <trkpt lat="48.97377" lon="7.86897">
        <ele>261.14</ele>
        <time>2021-07-20T13:41:36Z</time>
      </trkpt>
      <trkpt lat="48.97487" lon="7.86736">
        <ele>266.42</ele>
        <time>2021-07-20T13:41:46Z</time>
      </trkpt>
      <trkpt lat="48.97587" lon="7.86639">
        <ele>261.62</ele>
        <time>2021-07-20T13:41:54Z</time>
      </trkpt>
      <trkpt lat="48.9777" lon="7.8651">
        <ele>265.94</ele>
        <time>2021-07-20T13:42:06Z</time>
      </trkpt>
      <trkpt lat="48.97884" lon="7.86455">
        <ele>257.29</ele>
        <time>2021-07-20T13:42:14Z</time>
      </trkpt>
      <trkpt lat="48.97999" lon="7.86433">
        <ele>252</ele>
        <time>2021-07-20T13:42:22Z</time>
      </trkpt>
      <trkpt lat="48.98023" lon="7.86431">
        <ele>252.48</ele>
        <time>2021-07-20T13:42:24Z</time>
      </trkpt>
      <trkpt lat="48.98033" lon="7.86431">
        <ele>251.52</ele>
        <time>2021-07-20T13:42:25Z</time>
      </trkpt>
      <trkpt lat="48.98045" lon="7.8643">
        <ele>252</ele>
        <time>2021-07-20T13:42:26Z</time>
      </trkpt>
      <trkpt lat="48.98057" lon="7.86423">
        <ele>251.52</ele>
        <time>2021-07-20T13:42:27Z</time>
      </trkpt>
      <trkpt lat="48.9807" lon="7.86415">
        <ele>251.52</ele>
        <time>2021-07-20T13:42:28Z</time>
      </trkpt>
      <trkpt lat="48.9808" lon="7.864">
        <ele>252.48</ele>
        <time>2021-07-20T13:42:29Z</time>
      </trkpt>
      <trkpt lat="48.9809" lon="7.86387">
        <ele>252.96</ele>
        <time>2021-07-20T13:42:30Z</time>
      </trkpt>
      <trkpt lat="48.981" lon="7.86373">
        <ele>253.44</ele>
        <time>2021-07-20T13:42:31Z</time>
      </trkpt>
      <trkpt lat="48.98215" lon="7.86153">
        <ele>264.5</ele>
        <time>2021-07-20T13:42:42Z</time>
      </trkpt>
      <trkpt lat="48.98281" lon="7.86039">
        <ele>272.67</ele>
        <time>2021-07-20T13:42:50Z</time>
      </trkpt>
      <trkpt lat="48.98292" lon="7.8603">
        <ele>273.63</ele>
        <time>2021-07-20T13:42:51Z</time>
      </trkpt>
      <trkpt lat="48.98303" lon="7.86021">
        <ele>275.07</ele>
        <time>2021-07-20T13:42:52Z</time>
      </trkpt>
      <trkpt lat="48.98438" lon="7.85918">
        <ele>282.77</ele>
        <time>2021-07-20T13:43:03Z</time>
      </trkpt>
      <trkpt lat="48.98569" lon="7.85812">
        <ele>281.32</ele>
        <time>2021-07-20T13:43:14Z</time>
      </trkpt>
      <trkpt lat="48.98654" lon="7.85722">
        <ele>283.73</ele>
        <time>2021-07-20T13:43:25Z</time>
      </trkpt>
      <trkpt lat="48.98688" lon="7.85674">
        <ele>288.53</ele>
        <time>2021-07-20T13:43:35Z</time>
      </trkpt>
      <trkpt lat="48.98695" lon="7.85662">
        <ele>289.49</ele>
        <time>2021-07-20T13:43:39Z</time>
      </trkpt>
      <trkpt lat="48.98692" lon="7.85666">
        <ele>289.49</ele>
        <time>2021-07-20T13:43:40Z</time>
      </trkpt>
      <trkpt lat="48.98691" lon="7.85662">
        <ele>289.01</ele>
        <time>2021-07-20T13:43:41Z</time>
      </trkpt>
      <trkpt lat="48.9869" lon="7.85659">
        <ele>289.01</ele>
        <time>2021-07-20T13:43:42Z</time>
      </trkpt>
      <trkpt lat="48.98692" lon="7.85666">
        <ele>288.53</ele>
        <time>2021-07-20T13:43:43Z</time>
      </trkpt>
      <trkpt lat="48.98692" lon="7.85667">
        <ele>288.05</ele>
        <time>2021-07-20T13:43:44Z</time>
      </trkpt>
      <trkpt lat="48.98689" lon="7.85671">
        <ele>287.57</ele>
        <time>2021-07-20T13:43:45Z</time>
      </trkpt>
      <trkpt lat="48.98686" lon="7.85676">
        <ele>287.09</ele>
        <time>2021-07-20T13:43:46Z</time>
      </trkpt>
      <trkpt lat="48.98684" lon="7.8568">
        <ele>286.13</ele>
        <time>2021-07-20T13:43:47Z</time>
      </trkpt>
      <trkpt lat="48.98681" lon="7.85684">
        <ele>285.17</ele>
        <time>2021-07-20T13:43:48Z</time>
      </trkpt>
      <trkpt lat="48.98678" lon="7.85689">
        <ele>284.69</ele>
        <time>2021-07-20T13:43:49Z</time>
      </trkpt>
      <trkpt lat="48.98675" lon="7.85695">
        <ele>283.73</ele>
        <time>2021-07-20T13:43:50Z</time>
      </trkpt>
      <trkpt lat="48.98671" lon="7.85702">
        <ele>282.77</ele>
        <time>2021-07-20T13:43:51Z</time>
      </trkpt>
      <trkpt lat="48.98598" lon="7.85785">
        <ele>276.04</ele>
        <time>2021-07-20T13:44:07Z</time>
      </trkpt>
      <trkpt lat="48.98562" lon="7.85819">
        <ele>273.15</ele>
        <time>2021-07-20T13:44:16Z</time>
      </trkpt>
      <trkpt lat="48.98554" lon="7.85826">
        <ele>272.19</ele>
        <time>2021-07-20T13:44:19Z</time>
      </trkpt>
      <trkpt lat="48.98552" lon="7.85807">
        <ele>271.71</ele>
        <time>2021-07-20T13:44:23Z</time>
      </trkpt>
      <trkpt lat="48.98552" lon="7.85799">
        <ele>271.71</ele>
        <time>2021-07-20T13:44:25Z</time>
      </trkpt>
      <trkpt lat="48.98544" lon="7.85794">
        <ele>271.23</ele>
        <time>2021-07-20T13:44:30Z</time>
      </trkpt>
      <trkpt lat="48.98548" lon="7.85791">
        <ele>271.71</ele>
        <time>2021-07-20T13:44:42Z</time>
      </trkpt>
      <trkpt lat="48.98554" lon="7.85821">
        <ele>270.75</ele>
        <time>2021-07-20T13:44:54Z</time>
      </trkpt>
      <trkpt lat="48.98556" lon="7.85825">
        <ele>270.75</ele>
        <time>2021-07-20T13:44:57Z</time>
      </trkpt>
      <trkpt lat="48.98556" lon="7.85825">
        <ele>270.75</ele>
        <time>2021-07-20T13:44:58Z</time>
      </trkpt>
      <trkpt lat="48.98558" lon="7.85823">
        <ele>270.75</ele>
        <time>2021-07-20T13:44:59Z</time>
      </trkpt>
      <trkpt lat="48.9856" lon="7.85821">
        <ele>270.75</ele>
        <time>2021-07-20T13:45:00Z</time>
      </trkpt>
      <trkpt lat="48.98565" lon="7.85817">
        <ele>270.75</ele>
        <time>2021-07-20T13:45:01Z</time>
      </trkpt>
      <trkpt lat="48.98569" lon="7.85813">
        <ele>270.75</ele>
        <time>2021-07-20T13:45:02Z</time>
      </trkpt>
      <trkpt lat="48.98573" lon="7.85808">
        <ele>270.75</ele>
        <time>2021-07-20T13:45:03Z</time>
      </trkpt>
      <trkpt lat="48.98633" lon="7.85748">
        <ele>275.56</ele>
        <time>2021-07-20T13:45:15Z</time>
      </trkpt>
      <trkpt lat="48.98683" lon="7.85682">
        <ele>282.28</ele>
        <time>2021-07-20T13:45:27Z</time>
      </trkpt>
      <trkpt lat="48.98709" lon="7.85638">
        <ele>288.05</ele>
        <time>2021-07-20T13:45:36Z</time>
      </trkpt>
      <trkpt lat="48.98769" lon="7.85549">
        <ele>299.11</ele>
        <time>2021-07-20T13:45:45Z</time>
      </trkpt>
      <trkpt lat="48.98838" lon="7.85458">
        <ele>311.12</ele>
        <time>2021-07-20T13:45:54Z</time>
      </trkpt>
      <trkpt lat="48.98842" lon="7.85443">
        <ele>312.57</ele>
        <time>2021-07-20T13:45:55Z</time>
      </trkpt>
      <trkpt lat="48.98846" lon="7.8543">
        <ele>314.01</ele>
        <time>2021-07-20T13:45:56Z</time>
      </trkpt>
      <trkpt lat="48.9885" lon="7.85416">
        <ele>313.53</ele>
        <time>2021-07-20T13:45:57Z</time>
      </trkpt>
      <trkpt lat="48.98853" lon="7.85405">
        <ele>314.97</ele>
        <time>2021-07-20T13:45:58Z</time>
      </trkpt>
      <trkpt lat="48.98853" lon="7.8539">
        <ele>315.93</ele>
        <time>2021-07-20T13:45:59Z</time>
      </trkpt>
      <trkpt lat="48.98853" lon="7.85375">
        <ele>316.41</ele>
        <time>2021-07-20T13:46:00Z</time>
      </trkpt>
      <trkpt lat="48.98852" lon="7.85357">
        <ele>317.37</ele>
        <time>2021-07-20T13:46:01Z</time>
      </trkpt>
      <trkpt lat="48.98852" lon="7.85339">
        <ele>316.89</ele>
        <time>2021-07-20T13:46:02Z</time>
      </trkpt>
      <trkpt lat="48.98839" lon="7.85197">
        <ele>323.62</ele>
        <time>2021-07-20T13:46:10Z</time>
      </trkpt>
      <trkpt lat="48.98828" lon="7.8515">
        <ele>326.5</ele>
        <time>2021-07-20T13:46:13Z</time>
      </trkpt>
      <trkpt lat="48.98825" lon="7.85141">
        <ele>327.47</ele>
        <time>2021-07-20T13:46:14Z</time>
      </trkpt>
      <trkpt lat="48.98828" lon="7.85125">
        <ele>328.91</ele>
        <time>2021-07-20T13:46:15Z</time>
      </trkpt>
      <trkpt lat="48.98831" lon="7.85113">
        <ele>329.39</ele>
        <time>2021-07-20T13:46:16Z</time>
      </trkpt>
      <trkpt lat="48.98833" lon="7.85101">
        <ele>329.87</ele>
        <time>2021-07-20T13:46:17Z</time>
      </trkpt>
      <trkpt lat="48.98835" lon="7.85088">
        <ele>331.31</ele>
        <time>2021-07-20T13:46:18Z</time>
      </trkpt>
      <trkpt lat="48.98842" lon="7.85062">
        <ele>333.71</ele>
        <time>2021-07-20T13:46:20Z</time>
      </trkpt>
      <trkpt lat="48.98846" lon="7.85049">
        <ele>334.68</ele>
        <time>2021-07-20T13:46:21Z</time>
      </trkpt>
      <trkpt lat="48.98861" lon="7.85017">
        <ele>336.12</ele>
        <time>2021-07-20T13:46:24Z</time>
      </trkpt>
      <trkpt lat="48.98867" lon="7.85006">
        <ele>337.56</ele>
        <time>2021-07-20T13:46:25Z</time>
      </trkpt>
      <trkpt lat="48.98946" lon="7.84886">
        <ele>344.29</ele>
        <time>2021-07-20T13:46:35Z</time>
      </trkpt>
      <trkpt lat="48.99032" lon="7.84768">
        <ele>357.27</ele>
        <time>2021-07-20T13:46:45Z</time>
      </trkpt>
      <trkpt lat="48.99076" lon="7.84694">
        <ele>365.92</ele>
        <time>2021-07-20T13:46:51Z</time>
      </trkpt>
      <trkpt lat="48.99076" lon="7.84694">
        <ele>366.88</ele>
        <time>2021-07-20T13:46:52Z</time>
      </trkpt>
      <trkpt lat="48.9908" lon="7.84683">
        <ele>367.84</ele>
        <time>2021-07-20T13:46:53Z</time>
      </trkpt>
      <trkpt lat="48.991" lon="7.84633">
        <ele>374.57</ele>
        <time>2021-07-20T13:47:00Z</time>
      </trkpt>
      <trkpt lat="48.99104" lon="7.84622">
        <ele>376.97</ele>
        <time>2021-07-20T13:47:04Z</time>
      </trkpt>
      <trkpt lat="48.9911" lon="7.84609">
        <ele>377.45</ele>
        <time>2021-07-20T13:47:06Z</time>
      </trkpt>
      <trkpt lat="48.99113" lon="7.84604">
        <ele>377.94</ele>
        <time>2021-07-20T13:47:07Z</time>
      </trkpt>
      <trkpt lat="48.99132" lon="7.8458">
        <ele>381.3</ele>
        <time>2021-07-20T13:47:12Z</time>
      </trkpt>
      <trkpt lat="48.9914" lon="7.84571">
        <ele>381.78</ele>
        <time>2021-07-20T13:47:14Z</time>
      </trkpt>
      <trkpt lat="48.99144" lon="7.84567">
        <ele>382.74</ele>
        <time>2021-07-20T13:47:15Z</time>
      </trkpt>
      <trkpt lat="48.99149" lon="7.84562">
        <ele>383.22</ele>
        <time>2021-07-20T13:47:16Z</time>
      </trkpt>
      <trkpt lat="48.99151" lon="7.84559">
        <ele>383.7</ele>
        <time>2021-07-20T13:47:17Z</time>
      </trkpt>
      <trkpt lat="48.99152" lon="7.84554">
        <ele>384.18</ele>
        <time>2021-07-20T13:47:18Z</time>
      </trkpt>
      <trkpt lat="48.99153" lon="7.84549">
        <ele>384.66</ele>
        <time>2021-07-20T13:47:19Z</time>
      </trkpt>
      <trkpt lat="48.99156" lon="7.84537">
        <ele>384.66</ele>
        <time>2021-07-20T13:47:20Z</time>
      </trkpt>
      <trkpt lat="48.99156" lon="7.84537">
        <ele>384.66</ele>
        <time>2021-07-20T13:47:21Z</time>
      </trkpt>
      <trkpt lat="48.99158" lon="7.84526">
        <ele>384.66</ele>
        <time>2021-07-20T13:47:22Z</time>
      </trkpt>
      <trkpt lat="48.99166" lon="7.84482">
        <ele>385.15</ele>
        <time>2021-07-20T13:47:35Z</time>
      </trkpt>
      <trkpt lat="48.99167" lon="7.84478">
        <ele>385.63</ele>
        <time>2021-07-20T13:47:36Z</time>
      </trkpt>
      <trkpt lat="48.99167" lon="7.84478">
        <ele>385.63</ele>
        <time>2021-07-20T13:47:37Z</time>
      </trkpt>
      <trkpt lat="48.9918" lon="7.84418">
        <ele>385.15</ele>
        <time>2021-07-20T13:47:43Z</time>
      </trkpt>
      <trkpt lat="48.99184" lon="7.84405">
        <ele>383.7</ele>
        <time>2021-07-20T13:47:44Z</time>
      </trkpt>
      <trkpt lat="48.99189" lon="7.84392">
        <ele>383.22</ele>
        <time>2021-07-20T13:47:45Z</time>
      </trkpt>
      <trkpt lat="48.99255" lon="7.84275">
        <ele>381.78</ele>
        <time>2021-07-20T13:47:54Z</time>
      </trkpt>
      <trkpt lat="48.99315" lon="7.84174">
        <ele>380.82</ele>
        <time>2021-07-20T13:48:01Z</time>
      </trkpt>
      <trkpt lat="48.99315" lon="7.84174">
        <ele>380.82</ele>
        <time>2021-07-20T13:48:02Z</time>
      </trkpt>
      <trkpt lat="48.99318" lon="7.84158">
        <ele>381.3</ele>
        <time>2021-07-20T13:48:03Z</time>
      </trkpt>
      <trkpt lat="48.9932" lon="7.84143">
        <ele>380.34</ele>
        <time>2021-07-20T13:48:04Z</time>
      </trkpt>
      <trkpt lat="48.99322" lon="7.84127">
        <ele>380.34</ele>
        <time>2021-07-20T13:48:05Z</time>
      </trkpt>
      <trkpt lat="48.99324" lon="7.84111">
        <ele>379.86</ele>
        <time>2021-07-20T13:48:06Z</time>
      </trkpt>
      <trkpt lat="48.99325" lon="7.84095">
        <ele>379.38</ele>
        <time>2021-07-20T13:48:07Z</time>
      </trkpt>
      <trkpt lat="48.99327" lon="7.83911">
        <ele>373.61</ele>
        <time>2021-07-20T13:48:18Z</time>
      </trkpt>
      <trkpt lat="48.9933" lon="7.83894">
        <ele>374.09</ele>
        <time>2021-07-20T13:48:19Z</time>
      </trkpt>
      <trkpt lat="48.99334" lon="7.83879">
        <ele>374.09</ele>
        <time>2021-07-20T13:48:20Z</time>
      </trkpt>
      <trkpt lat="48.99338" lon="7.83861">
        <ele>374.57</ele>
        <time>2021-07-20T13:48:21Z</time>
      </trkpt>
      <trkpt lat="48.99343" lon="7.83844">
        <ele>375.05</ele>
        <time>2021-07-20T13:48:22Z</time>
      </trkpt>
      <trkpt lat="48.99417" lon="7.83629">
        <ele>362.55</ele>
        <time>2021-07-20T13:48:33Z</time>
      </trkpt>
      <trkpt lat="48.99455" lon="7.83503">
        <ele>345.25</ele>
        <time>2021-07-20T13:48:42Z</time>
      </trkpt>
      <trkpt lat="48.99458" lon="7.83471">
        <ele>342.37</ele>
        <time>2021-07-20T13:48:43Z</time>
      </trkpt>
      <trkpt lat="48.99458" lon="7.83471">
        <ele>341.89</ele>
        <time>2021-07-20T13:48:44Z</time>
      </trkpt>
      <trkpt lat="48.99458" lon="7.83455">
        <ele>341.41</ele>
        <time>2021-07-20T13:48:45Z</time>
      </trkpt>
      <trkpt lat="48.99457" lon="7.83436">
        <ele>340.44</ele>
        <time>2021-07-20T13:48:46Z</time>
      </trkpt>
      <trkpt lat="48.99423" lon="7.83239">
        <ele>335.16</ele>
        <time>2021-07-20T13:48:58Z</time>
      </trkpt>
      <trkpt lat="48.99418" lon="7.83225">
        <ele>334.68</ele>
        <time>2021-07-20T13:48:59Z</time>
      </trkpt>
      <trkpt lat="48.99412" lon="7.83212">
        <ele>333.71</ele>
        <time>2021-07-20T13:49:00Z</time>
      </trkpt>
      <trkpt lat="48.99407" lon="7.83201">
        <ele>332.75</ele>
        <time>2021-07-20T13:49:01Z</time>
      </trkpt>
      <trkpt lat="48.99401" lon="7.83192">
        <ele>331.79</ele>
        <time>2021-07-20T13:49:02Z</time>
      </trkpt>
      <trkpt lat="48.99396" lon="7.83183">
        <ele>332.27</ele>
        <time>2021-07-20T13:49:03Z</time>
      </trkpt>
      <trkpt lat="48.9934" lon="7.83076">
        <ele>326.5</ele>
        <time>2021-07-20T13:49:14Z</time>
      </trkpt>
      <trkpt lat="48.99299" lon="7.82946">
        <ele>327.95</ele>
        <time>2021-07-20T13:49:24Z</time>
      </trkpt>
      <trkpt lat="48.99235" lon="7.82771">
        <ele>332.27</ele>
        <time>2021-07-20T13:49:39Z</time>
      </trkpt>
      <trkpt lat="48.9923" lon="7.8276">
        <ele>331.79</ele>
        <time>2021-07-20T13:49:40Z</time>
      </trkpt>
      <trkpt lat="48.99228" lon="7.82748">
        <ele>330.83</ele>
        <time>2021-07-20T13:49:41Z</time>
      </trkpt>
      <trkpt lat="48.99227" lon="7.82734">
        <ele>329.87</ele>
        <time>2021-07-20T13:49:42Z</time>
      </trkpt>
      <trkpt lat="48.99224" lon="7.82705">
        <ele>329.87</ele>
        <time>2021-07-20T13:49:43Z</time>
      </trkpt>
      <trkpt lat="48.99224" lon="7.82705">
        <ele>329.87</ele>
        <time>2021-07-20T13:49:44Z</time>
      </trkpt>
      <trkpt lat="48.99228" lon="7.8269">
        <ele>330.35</ele>
        <time>2021-07-20T13:49:45Z</time>
      </trkpt>
      <trkpt lat="48.99232" lon="7.82673">
        <ele>330.83</ele>
        <time>2021-07-20T13:49:46Z</time>
      </trkpt>
      <trkpt lat="48.99267" lon="7.82588">
        <ele>333.23</ele>
        <time>2021-07-20T13:49:53Z</time>
      </trkpt>
      <trkpt lat="48.99274" lon="7.8258">
        <ele>332.27</ele>
        <time>2021-07-20T13:49:54Z</time>
      </trkpt>
      <trkpt lat="48.99282" lon="7.82573">
        <ele>331.31</ele>
        <time>2021-07-20T13:49:55Z</time>
      </trkpt>
      <trkpt lat="48.9929" lon="7.82564">
        <ele>329.87</ele>
        <time>2021-07-20T13:49:56Z</time>
      </trkpt>
      <trkpt lat="48.99299" lon="7.82557">
        <ele>329.39</ele>
        <time>2021-07-20T13:49:57Z</time>
      </trkpt>
      <trkpt lat="48.99307" lon="7.82556">
        <ele>328.91</ele>
        <time>2021-07-20T13:49:58Z</time>
      </trkpt>
      <trkpt lat="48.99316" lon="7.82555">
        <ele>327.47</ele>
        <time>2021-07-20T13:49:59Z</time>
      </trkpt>
      <trkpt lat="48.99323" lon="7.82554">
        <ele>326.5</ele>
        <time>2021-07-20T13:50:00Z</time>
      </trkpt>
      <trkpt lat="48.99331" lon="7.82553">
        <ele>325.54</ele>
        <time>2021-07-20T13:50:01Z</time>
      </trkpt>
      <trkpt lat="48.99408" lon="7.8253">
        <ele>318.33</ele>
        <time>2021-07-20T13:50:13Z</time>
      </trkpt>
      <trkpt lat="48.99441" lon="7.82514">
        <ele>314.97</ele>
        <time>2021-07-20T13:50:18Z</time>
      </trkpt>
      <trkpt lat="48.99448" lon="7.82508">
        <ele>314.49</ele>
        <time>2021-07-20T13:50:19Z</time>
      </trkpt>
      <trkpt lat="48.9953" lon="7.82394">
        <ele>304.88</ele>
        <time>2021-07-20T13:50:32Z</time>
      </trkpt>
      <trkpt lat="48.99613" lon="7.82242">
        <ele>296.22</ele>
        <time>2021-07-20T13:50:45Z</time>
      </trkpt>
      <trkpt lat="48.99644" lon="7.82109">
        <ele>286.13</ele>
        <time>2021-07-20T13:50:53Z</time>
      </trkpt>
      <trkpt lat="48.99647" lon="7.82092">
        <ele>285.17</ele>
        <time>2021-07-20T13:50:54Z</time>
      </trkpt>
      <trkpt lat="48.99654" lon="7.82078">
        <ele>285.65</ele>
        <time>2021-07-20T13:50:55Z</time>
      </trkpt>
      <trkpt lat="48.99702" lon="7.81975">
        <ele>281.8</ele>
        <time>2021-07-20T13:51:02Z</time>
      </trkpt>
      <trkpt lat="48.9971" lon="7.81941">
        <ele>279.4</ele>
        <time>2021-07-20T13:51:04Z</time>
      </trkpt>
      <trkpt lat="48.99714" lon="7.81925">
        <ele>278.44</ele>
        <time>2021-07-20T13:51:05Z</time>
      </trkpt>
      <trkpt lat="48.99747" lon="7.81708">
        <ele>270.75</ele>
        <time>2021-07-20T13:51:17Z</time>
      </trkpt>
      <trkpt lat="48.99752" lon="7.81693">
        <ele>270.27</ele>
        <time>2021-07-20T13:51:18Z</time>
      </trkpt>
      <trkpt lat="48.99759" lon="7.81678">
        <ele>269.31</ele>
        <time>2021-07-20T13:51:19Z</time>
      </trkpt>
      <trkpt lat="48.99765" lon="7.81663">
        <ele>268.35</ele>
        <time>2021-07-20T13:51:20Z</time>
      </trkpt>
      <trkpt lat="48.99772" lon="7.81649">
        <ele>267.86</ele>
        <time>2021-07-20T13:51:21Z</time>
      </trkpt>
      <trkpt lat="48.99861" lon="7.81486">
        <ele>257.77</ele>
        <time>2021-07-20T13:51:31Z</time>
      </trkpt>
      <trkpt lat="48.99868" lon="7.81467">
        <ele>256.33</ele>
        <time>2021-07-20T13:51:32Z</time>
      </trkpt>
      <trkpt lat="48.99868" lon="7.81467">
        <ele>254.89</ele>
        <time>2021-07-20T13:51:33Z</time>
      </trkpt>
      <trkpt lat="48.99876" lon="7.81426">
        <ele>252</ele>
        <time>2021-07-20T13:51:35Z</time>
      </trkpt>
      <trkpt lat="48.99876" lon="7.81407">
        <ele>250.56</ele>
        <time>2021-07-20T13:51:36Z</time>
      </trkpt>
      <trkpt lat="48.99875" lon="7.81388">
        <ele>249.6</ele>
        <time>2021-07-20T13:51:37Z</time>
      </trkpt>
      <trkpt lat="48.99873" lon="7.81373">
        <ele>248.16</ele>
        <time>2021-07-20T13:51:38Z</time>
      </trkpt>
      <trkpt lat="48.99868" lon="7.8136">
        <ele>247.68</ele>
        <time>2021-07-20T13:51:39Z</time>
      </trkpt>
      <trkpt lat="48.99863" lon="7.81348">
        <ele>246.23</ele>
        <time>2021-07-20T13:51:40Z</time>
      </trkpt>
      <trkpt lat="48.99858" lon="7.81337">
        <ele>244.31</ele>
        <time>2021-07-20T13:51:41Z</time>
      </trkpt>
      <trkpt lat="48.99844" lon="7.81323">
        <ele>242.87</ele>
        <time>2021-07-20T13:51:42Z</time>
      </trkpt>
      <trkpt lat="48.99836" lon="7.81319">
        <ele>241.43</ele>
        <time>2021-07-20T13:51:43Z</time>
      </trkpt>
      <trkpt lat="48.99827" lon="7.81317">
        <ele>239.51</ele>
        <time>2021-07-20T13:51:44Z</time>
      </trkpt>
      <trkpt lat="48.9982" lon="7.81314">
        <ele>238.06</ele>
        <time>2021-07-20T13:51:45Z</time>
      </trkpt>
      <trkpt lat="48.99813" lon="7.81313">
        <ele>237.1</ele>
        <time>2021-07-20T13:51:47Z</time>
      </trkpt>
      <trkpt lat="48.99808" lon="7.81311">
        <ele>236.14</ele>
        <time>2021-07-20T13:51:48Z</time>
      </trkpt>
      <trkpt lat="48.99804" lon="7.81304">
        <ele>235.18</ele>
        <time>2021-07-20T13:51:49Z</time>
      </trkpt>
      <trkpt lat="48.99802" lon="7.813">
        <ele>234.22</ele>
        <time>2021-07-20T13:51:50Z</time>
      </trkpt>
      <trkpt lat="48.99801" lon="7.81295">
        <ele>233.26</ele>
        <time>2021-07-20T13:51:51Z</time>
      </trkpt>
      <trkpt lat="48.99804" lon="7.81284">
        <ele>232.78</ele>
        <time>2021-07-20T13:51:52Z</time>
      </trkpt>
      <trkpt lat="48.99808" lon="7.81278">
        <ele>231.81</ele>
        <time>2021-07-20T13:51:53Z</time>
      </trkpt>
      <trkpt lat="48.99814" lon="7.81277">
        <ele>230.85</ele>
        <time>2021-07-20T13:51:54Z</time>
      </trkpt>
      <trkpt lat="48.99829" lon="7.81273">
        <ele>230.37</ele>
        <time>2021-07-20T13:51:55Z</time>
      </trkpt>
      <trkpt lat="48.99852" lon="7.81267">
        <ele>227.01</ele>
        <time>2021-07-20T13:51:59Z</time>
      </trkpt>
      <trkpt lat="48.9986" lon="7.81263">
        <ele>225.57</ele>
        <time>2021-07-20T13:52:00Z</time>
      </trkpt>
      <trkpt lat="48.99867" lon="7.81257">
        <ele>224.61</ele>
        <time>2021-07-20T13:52:01Z</time>
      </trkpt>
      <trkpt lat="48.99875" lon="7.8125">
        <ele>223.64</ele>
        <time>2021-07-20T13:52:02Z</time>
      </trkpt>
      <trkpt lat="48.99878" lon="7.81237">
        <ele>223.16</ele>
        <time>2021-07-20T13:52:03Z</time>
      </trkpt>
      <trkpt lat="48.99881" lon="7.81224">
        <ele>222.2</ele>
        <time>2021-07-20T13:52:04Z</time>
      </trkpt>
      <trkpt lat="48.99884" lon="7.81211">
        <ele>220.76</ele>
        <time>2021-07-20T13:52:05Z</time>
      </trkpt>
      <trkpt lat="48.99886" lon="7.81196">
        <ele>218.84</ele>
        <time>2021-07-20T13:52:06Z</time>
      </trkpt>
      <trkpt lat="48.99889" lon="7.81137">
        <ele>216.91</ele>
        <time>2021-07-20T13:52:10Z</time>
      </trkpt>
      <trkpt lat="48.99889" lon="7.81121">
        <ele>217.4</ele>
        <time>2021-07-20T13:52:11Z</time>
      </trkpt>
      <trkpt lat="48.99886" lon="7.81106">
        <ele>217.88</ele>
        <time>2021-07-20T13:52:12Z</time>
      </trkpt>
      <trkpt lat="48.99846" lon="7.81009">
        <ele>221.24</ele>
        <time>2021-07-20T13:52:19Z</time>
      </trkpt>
      <trkpt lat="48.99838" lon="7.80996">
        <ele>222.2</ele>
        <time>2021-07-20T13:52:20Z</time>
      </trkpt>
      <trkpt lat="48.99758" lon="7.80865">
        <ele>227.49</ele>
        <time>2021-07-20T13:52:29Z</time>
      </trkpt>
      <trkpt lat="48.99689" lon="7.8074">
        <ele>226.05</ele>
        <time>2021-07-20T13:52:36Z</time>
      </trkpt>
      <trkpt lat="48.99682" lon="7.80718">
        <ele>225.09</ele>
        <time>2021-07-20T13:52:37Z</time>
      </trkpt>
      <trkpt lat="48.99662" lon="7.80656">
        <ele>223.16</ele>
        <time>2021-07-20T13:52:40Z</time>
      </trkpt>
      <trkpt lat="48.99656" lon="7.80635">
        <ele>223.16</ele>
        <time>2021-07-20T13:52:41Z</time>
      </trkpt>
      <trkpt lat="48.99604" lon="7.80519">
        <ele>223.64</ele>
        <time>2021-07-20T13:52:47Z</time>
      </trkpt>
      <trkpt lat="48.99597" lon="7.80499">
        <ele>223.64</ele>
        <time>2021-07-20T13:52:48Z</time>
      </trkpt>
      <trkpt lat="48.99565" lon="7.80385">
        <ele>222.68</ele>
        <time>2021-07-20T13:52:53Z</time>
      </trkpt>
      <trkpt lat="48.99557" lon="7.80366">
        <ele>222.2</ele>
        <time>2021-07-20T13:52:54Z</time>
      </trkpt>
      <trkpt lat="48.99468" lon="7.80189">
        <ele>219.8</ele>
        <time>2021-07-20T13:53:03Z</time>
      </trkpt>
      <trkpt lat="48.99449" lon="7.80149">
        <ele>220.28</ele>
        <time>2021-07-20T13:53:05Z</time>
      </trkpt>
      <trkpt lat="48.99442" lon="7.80127">
        <ele>218.84</ele>
        <time>2021-07-20T13:53:06Z</time>
      </trkpt>
      <trkpt lat="48.99437" lon="7.80103">
        <ele>217.88</ele>
        <time>2021-07-20T13:53:07Z</time>
      </trkpt>
      <trkpt lat="48.99434" lon="7.80079">
        <ele>216.91</ele>
        <time>2021-07-20T13:53:08Z</time>
      </trkpt>
      <trkpt lat="48.99431" lon="7.80055">
        <ele>215.47</ele>
        <time>2021-07-20T13:53:09Z</time>
      </trkpt>
      <trkpt lat="48.994" lon="7.79879">
        <ele>211.15</ele>
        <time>2021-07-20T13:53:17Z</time>
      </trkpt>
      <trkpt lat="48.99341" lon="7.7976">
        <ele>212.11</ele>
        <time>2021-07-20T13:53:24Z</time>
      </trkpt>
      <trkpt lat="48.99336" lon="7.79742">
        <ele>211.63</ele>
        <time>2021-07-20T13:53:25Z</time>
      </trkpt>
      <trkpt lat="48.99332" lon="7.79727">
        <ele>211.15</ele>
        <time>2021-07-20T13:53:26Z</time>
      </trkpt>
      <trkpt lat="48.99332" lon="7.79707">
        <ele>210.67</ele>
        <time>2021-07-20T13:53:27Z</time>
      </trkpt>
      <trkpt lat="48.99332" lon="7.79687">
        <ele>209.7</ele>
        <time>2021-07-20T13:53:28Z</time>
      </trkpt>
      <trkpt lat="48.99332" lon="7.79667">
        <ele>208.26</ele>
        <time>2021-07-20T13:53:29Z</time>
      </trkpt>
      <trkpt lat="48.99337" lon="7.79652">
        <ele>207.3</ele>
        <time>2021-07-20T13:53:30Z</time>
      </trkpt>
      <trkpt lat="48.99344" lon="7.79632">
        <ele>207.3</ele>
        <time>2021-07-20T13:53:31Z</time>
      </trkpt>
      <trkpt lat="48.9935" lon="7.79614">
        <ele>207.3</ele>
        <time>2021-07-20T13:53:32Z</time>
      </trkpt>
      <trkpt lat="48.99356" lon="7.79596">
        <ele>206.82</ele>
        <time>2021-07-20T13:53:33Z</time>
      </trkpt>
      <trkpt lat="48.99367" lon="7.7956">
        <ele>205.86</ele>
        <time>2021-07-20T13:53:35Z</time>
      </trkpt>
      <trkpt lat="48.99371" lon="7.79545">
        <ele>206.82</ele>
        <time>2021-07-20T13:53:36Z</time>
      </trkpt>
      <trkpt lat="48.99372" lon="7.7953">
        <ele>207.3</ele>
        <time>2021-07-20T13:53:37Z</time>
      </trkpt>
      <trkpt lat="48.9937" lon="7.79514">
        <ele>208.74</ele>
        <time>2021-07-20T13:53:38Z</time>
      </trkpt>
      <trkpt lat="48.99369" lon="7.79498">
        <ele>208.74</ele>
        <time>2021-07-20T13:53:39Z</time>
      </trkpt>
      <trkpt lat="48.99367" lon="7.79483">
        <ele>209.7</ele>
        <time>2021-07-20T13:53:40Z</time>
      </trkpt>
      <trkpt lat="48.99363" lon="7.79471">
        <ele>209.7</ele>
        <time>2021-07-20T13:53:41Z</time>
      </trkpt>
      <trkpt lat="48.99359" lon="7.79458">
        <ele>209.22</ele>
        <time>2021-07-20T13:53:42Z</time>
      </trkpt>
      <trkpt lat="48.99355" lon="7.79447">
        <ele>209.7</ele>
        <time>2021-07-20T13:53:43Z</time>
      </trkpt>
      <trkpt lat="48.9933" lon="7.79394">
        <ele>208.74</ele>
        <time>2021-07-20T13:53:50Z</time>
      </trkpt>
      <trkpt lat="48.99327" lon="7.79389">
        <ele>208.74</ele>
        <time>2021-07-20T13:53:51Z</time>
      </trkpt>
      <trkpt lat="48.99325" lon="7.79384">
        <ele>208.74</ele>
        <time>2021-07-20T13:53:52Z</time>
      </trkpt>
      <trkpt lat="48.99324" lon="7.79381">
        <ele>207.78</ele>
        <time>2021-07-20T13:53:53Z</time>
      </trkpt>
      <trkpt lat="48.99323" lon="7.79379">
        <ele>205.86</ele>
        <time>2021-07-20T13:54:08Z</time>
      </trkpt>
      <trkpt lat="48.9931" lon="7.79353">
        <ele>206.34</ele>
        <time>2021-07-20T13:54:15Z</time>
      </trkpt>
      <trkpt lat="48.9931" lon="7.79351">
        <ele>206.34</ele>
        <time>2021-07-20T13:54:16Z</time>
      </trkpt>
      <trkpt lat="48.99309" lon="7.7935">
        <ele>206.34</ele>
        <time>2021-07-20T13:54:17Z</time>
      </trkpt>
      <trkpt lat="48.99308" lon="7.79348">
        <ele>206.34</ele>
        <time>2021-07-20T13:54:18Z</time>
      </trkpt>
      <trkpt lat="48.99307" lon="7.79347">
        <ele>206.34</ele>
        <time>2021-07-20T13:54:19Z</time>
      </trkpt>
      <trkpt lat="48.99305" lon="7.79354">
        <ele>206.34</ele>
        <time>2021-07-20T13:54:30Z</time>
      </trkpt>
      <trkpt lat="48.99306" lon="7.79357">
        <ele>206.82</ele>
        <time>2021-07-20T13:54:48Z</time>
      </trkpt>
      <trkpt lat="48.99306" lon="7.79359">
        <ele>207.3</ele>
        <time>2021-07-20T13:55:05Z</time>
      </trkpt>
      <trkpt lat="48.99311" lon="7.79358">
        <ele>209.22</ele>
        <time>2021-07-20T13:56:04Z</time>
      </trkpt>
      <trkpt lat="48.99315" lon="7.7936">
        <ele>210.67</ele>
        <time>2021-07-20T13:56:52Z</time>
      </trkpt>
      <trkpt lat="48.99314" lon="7.7936">
        <ele>210.67</ele>
        <time>2021-07-20T13:57:43Z</time>
      </trkpt>
      <trkpt lat="48.99314" lon="7.7936">
        <ele>211.15</ele>
        <time>2021-07-20T13:58:22Z</time>
      </trkpt>
    </trkseg>
  </trk>
</gpx>